createdAt,value
2019-03-23T00:00:41.324Z,1019.32
2019-03-23T00:01:41.431Z,1019.39
2019-03-23T00:02:41.264Z,1019.34
2019-03-23T00:03:41.311Z,1019.34
2019-03-23T00:04:41.242Z,1019.32
2019-03-23T00:05:41.298Z,1019.37
2019-03-23T00:06:41.248Z,1019.42
2019-03-23T00:07:41.316Z,1019.30
2019-03-23T00:08:41.206Z,1019.36
2019-03-23T00:10:42.197Z,1019.38
2019-03-23T00:11:41.386Z,1019.33
2019-03-23T00:12:41.148Z,1019.38
2019-03-23T00:13:41.359Z,1019.38
2019-03-23T00:14:41.123Z,1019.44
2019-03-23T00:15:41.575Z,1019.40
2019-03-23T00:16:41.179Z,1019.37
2019-03-23T00:17:41.555Z,1019.39
2019-03-23T00:18:41.099Z,1019.44
2019-03-23T00:19:41.603Z,1019.43
2019-03-23T00:20:41.065Z,1019.39
2019-03-23T00:21:41.556Z,1019.47
2019-03-23T00:22:41.066Z,1019.48
2019-03-23T00:23:41.543Z,1019.51
2019-03-23T00:24:41.050Z,1019.49
2019-03-23T00:25:41.553Z,1019.46
2019-03-23T00:26:40.988Z,1019.47
2019-03-23T00:27:41.591Z,1019.45
2019-03-23T00:28:41.001Z,1019.51
2019-03-23T00:29:41.467Z,1019.46
2019-03-23T00:30:40.954Z,1019.49
2019-03-23T00:31:41.599Z,1019.54
2019-03-23T00:32:40.957Z,1019.54
2019-03-23T00:33:41.610Z,1019.61
2019-03-23T00:34:40.926Z,1019.64
2019-03-23T00:35:41.543Z,1019.68
2019-03-23T00:36:41.910Z,1019.60
2019-03-23T00:37:41.593Z,1019.74
2019-03-23T00:38:40.904Z,1019.62
2019-03-23T00:39:41.636Z,1019.66
2019-03-23T00:40:40.853Z,1019.69
2019-03-23T00:41:41.649Z,1019.69
2019-03-23T00:42:40.838Z,1019.66
2019-03-23T00:44:42.708Z,1019.70
2019-03-23T00:46:41.895Z,1019.73
2019-03-23T00:47:42.032Z,1019.69
2019-03-23T00:48:40.739Z,1019.72
2019-03-23T00:50:41.883Z,1019.80
2019-03-23T00:52:41.879Z,1019.83
2019-03-23T00:53:42.433Z,1019.80
2019-03-23T00:54:40.674Z,1019.82
2019-03-23T00:55:42.463Z,1019.88
2019-03-23T00:56:40.675Z,1019.82
2019-03-23T00:57:42.507Z,1019.83
2019-03-23T00:58:40.642Z,1019.86
2019-03-23T00:59:42.596Z,1019.87
2019-03-23T01:00:40.611Z,1019.80
2019-03-23T01:01:42.732Z,1019.84
2019-03-23T01:02:41.897Z,1019.85
2019-03-23T01:03:42.760Z,1019.87
2019-03-23T01:04:40.580Z,1019.83
2019-03-23T01:05:42.841Z,1019.83
2019-03-23T01:06:40.541Z,1019.85
2019-03-23T01:07:42.977Z,1019.92
2019-03-23T01:08:40.549Z,1019.85
2019-03-23T01:09:43.085Z,1019.89
2019-03-23T01:10:40.486Z,1019.91
2019-03-23T01:11:43.197Z,1019.94
2019-03-23T01:12:40.469Z,1019.96
2019-03-23T01:13:43.346Z,1019.94
2019-03-23T01:14:40.449Z,1019.97
2019-03-23T01:16:41.596Z,1019.97
2019-03-23T01:18:41.566Z,1019.99
2019-03-23T01:19:43.738Z,1019.89
2019-03-23T01:20:49.342Z,1020.00
2019-03-23T01:21:41.377Z,1019.97
2019-03-23T01:23:41.523Z,1019.96
2019-03-23T01:25:41.469Z,1020.01
2019-03-23T01:27:41.452Z,1020.00
2019-03-23T01:28:43.953Z,1019.98
2019-03-23T01:29:40.317Z,1020.05
2019-03-23T01:31:41.424Z,1020.01
2019-03-23T01:33:41.362Z,1019.96
2019-03-23T01:34:45.243Z,1019.96
2019-03-23T01:35:40.205Z,1020.00
2019-03-23T01:37:40.208Z,1020.07
2019-03-23T01:38:42.256Z,1020.05
2019-03-23T01:39:40.218Z,1020.09
2019-03-23T01:40:42.380Z,1020.06
2019-03-23T01:41:40.144Z,1020.07
2019-03-23T01:42:40.233Z,1020.06
2019-03-23T01:43:40.122Z,1020.03
2019-03-23T01:44:40.176Z,1020.10
2019-03-23T01:45:40.132Z,1020.08
2019-03-23T01:46:40.157Z,1020.11
2019-03-23T01:47:40.082Z,1020.14
2019-03-23T01:48:40.170Z,1020.09
2019-03-23T01:49:40.077Z,1020.12
2019-03-23T01:50:40.112Z,1020.15
2019-03-23T01:51:40.033Z,1020.04
2019-03-23T01:52:40.105Z,1020.15
2019-03-23T01:53:40.027Z,1020.06
2019-03-23T01:54:40.114Z,1020.09
2019-03-23T01:55:40.020Z,1020.11
2019-03-23T01:56:40.028Z,1020.05
2019-03-23T01:57:39.983Z,1020.05
2019-03-23T01:58:40.041Z,1020.10
2019-03-23T01:59:39.979Z,1020.11
2019-03-23T02:00:40.090Z,1020.17
2019-03-23T02:01:39.924Z,1020.15
2019-03-23T02:02:39.971Z,1020.13
2019-03-23T02:03:39.902Z,1020.11
2019-03-23T02:04:39.977Z,1020.21
2019-03-23T02:05:39.906Z,1020.19
2019-03-23T02:06:40.004Z,1020.18
2019-03-23T02:07:39.855Z,1020.16
2019-03-23T02:08:39.907Z,1020.20
2019-03-23T02:09:39.833Z,1020.17
2019-03-23T02:10:41.864Z,1020.14
2019-03-23T02:11:39.828Z,1020.15
2019-03-23T02:12:39.845Z,1020.18
2019-03-23T02:13:39.797Z,1020.22
2019-03-23T02:14:39.840Z,1020.18
2019-03-23T02:15:39.803Z,1020.19
2019-03-23T02:16:39.887Z,1020.27
2019-03-23T02:17:39.770Z,1020.25
2019-03-23T02:18:39.772Z,1020.24
2019-03-23T02:19:39.743Z,1020.28
2019-03-23T02:20:39.815Z,1020.33
2019-03-23T02:21:39.701Z,1020.31
2019-03-23T02:22:39.815Z,1020.31
2019-03-23T02:23:39.679Z,1020.28
2019-03-23T02:24:39.712Z,1020.34
2019-03-23T02:25:39.683Z,1020.35
2019-03-23T02:26:39.750Z,1020.38
2019-03-23T02:27:39.635Z,1020.36
2019-03-23T02:28:39.737Z,1020.40
2019-03-23T02:29:39.611Z,1020.46
2019-03-23T02:30:39.653Z,1020.45
2019-03-23T02:31:39.618Z,1020.42
2019-03-23T02:33:40.685Z,1020.47
2019-03-23T02:34:39.669Z,1020.45
2019-03-23T02:35:39.539Z,1020.59
2019-03-23T02:36:40.638Z,1020.54
2019-03-23T02:37:39.519Z,1020.65
2019-03-23T02:38:39.607Z,1020.61
2019-03-23T02:39:39.513Z,1020.63
2019-03-23T02:40:39.518Z,1020.67
2019-03-23T02:41:39.502Z,1020.68
2019-03-23T02:42:39.526Z,1020.73
2019-03-23T02:43:39.457Z,1020.77
2019-03-23T02:45:40.572Z,1020.82
2019-03-23T02:46:39.451Z,1020.76
2019-03-23T02:47:39.424Z,1020.78
2019-03-23T02:48:39.482Z,1020.78
2019-03-23T02:49:39.377Z,1020.85
2019-03-23T02:50:39.479Z,1020.81
2019-03-23T02:51:39.875Z,1020.82
2019-03-23T02:52:39.444Z,1020.85
2019-03-23T02:53:39.350Z,1020.81
2019-03-23T02:54:39.408Z,1020.81
2019-03-23T02:55:39.320Z,1020.83
2019-03-23T02:56:39.426Z,1020.84
2019-03-23T02:57:39.346Z,1020.80
2019-03-23T02:58:39.344Z,1020.80
2019-03-23T02:59:39.272Z,1020.85
2019-03-23T03:00:39.356Z,1020.92
2019-03-23T03:01:39.263Z,1020.87
2019-03-23T03:02:39.389Z,1020.86
2019-03-23T03:03:39.230Z,1020.87
2019-03-23T03:04:39.276Z,1020.93
2019-03-23T03:05:39.214Z,1020.95
2019-03-23T03:06:39.311Z,1020.91
2019-03-23T03:07:42.493Z,1021.00
2019-03-23T03:08:39.327Z,1021.05
2019-03-23T03:09:39.161Z,1021.02
2019-03-23T03:10:39.211Z,1021.03
2019-03-23T03:11:39.162Z,1021.06
2019-03-23T03:12:39.256Z,1021.06
2019-03-23T03:13:39.138Z,1021.03
2019-03-23T03:14:39.231Z,1021.08
2019-03-23T03:15:39.109Z,1021.06
2019-03-23T03:16:39.158Z,1021.04
2019-03-23T03:17:39.148Z,1021.08
2019-03-23T03:18:39.182Z,1021.10
2019-03-23T03:19:39.087Z,1021.09
2019-03-23T03:20:39.085Z,1021.07
2019-03-23T03:21:39.041Z,1021.19
2019-03-23T03:22:39.231Z,1021.17
2019-03-23T03:23:39.096Z,1021.21
2019-03-23T03:24:39.105Z,1021.18
2019-03-23T03:25:38.992Z,1021.18
2019-03-23T03:26:39.007Z,1021.18
2019-03-23T03:27:38.976Z,1021.22
2019-03-23T03:28:39.066Z,1021.28
2019-03-23T03:29:38.997Z,1021.26
2019-03-23T03:30:39.061Z,1021.30
2019-03-23T03:31:38.929Z,1021.23
2019-03-23T03:32:38.955Z,1021.29
2019-03-23T03:33:38.940Z,1021.35
2019-03-23T03:34:38.974Z,1021.23
2019-03-23T03:35:38.890Z,1021.29
2019-03-23T03:36:38.999Z,1021.33
2019-03-23T03:37:38.858Z,1021.27
2019-03-23T03:38:38.924Z,1021.24
2019-03-23T03:39:38.838Z,1021.26
2019-03-23T03:40:38.903Z,1021.26
2019-03-23T03:41:38.831Z,1021.26
2019-03-23T03:42:38.917Z,1021.32
2019-03-23T03:43:38.846Z,1021.32
2019-03-23T03:44:38.864Z,1021.34
2019-03-23T03:45:38.774Z,1021.37
2019-03-23T03:46:38.852Z,1021.30
2019-03-23T03:47:41.272Z,1021.28
2019-03-23T03:48:38.856Z,1021.33
2019-03-23T03:49:38.755Z,1021.37
2019-03-23T03:50:38.797Z,1021.36
2019-03-23T03:51:38.710Z,1021.32
2019-03-23T03:52:38.805Z,1021.28
2019-03-23T03:53:38.693Z,1021.31
2019-03-23T03:54:38.725Z,1021.31
2019-03-23T03:55:38.676Z,1021.28
2019-03-23T03:56:38.704Z,1021.32
2019-03-23T03:57:38.654Z,1021.28
2019-03-23T03:58:38.724Z,1021.32
2019-03-23T03:59:38.662Z,1021.29
2019-03-23T04:00:38.635Z,1021.34
2019-03-23T04:01:38.595Z,1021.35
2019-03-23T04:02:38.661Z,1021.35
2019-03-23T04:03:38.576Z,1021.40
2019-03-23T04:04:38.702Z,1021.31
2019-03-23T04:05:38.579Z,1021.35
2019-03-23T04:06:38.582Z,1021.38
2019-03-23T04:07:38.542Z,1021.36
2019-03-23T04:08:38.586Z,1021.34
2019-03-23T04:09:40.440Z,1021.37
2019-03-23T04:10:38.641Z,1021.43
2019-03-23T04:11:38.485Z,1021.40
2019-03-23T04:12:38.515Z,1021.35
2019-03-23T04:13:38.466Z,1021.36
2019-03-23T04:14:38.570Z,1021.39
2019-03-23T04:15:38.477Z,1021.49
2019-03-23T04:16:38.543Z,1021.53
2019-03-23T04:17:38.440Z,1021.46
2019-03-23T04:18:38.448Z,1021.46
2019-03-23T04:19:38.401Z,1021.47
2019-03-23T04:20:38.500Z,1021.49
2019-03-23T04:21:38.372Z,1021.47
2019-03-23T04:22:38.488Z,1021.55
2019-03-23T04:23:38.382Z,1021.51
2019-03-23T04:24:38.398Z,1021.60
2019-03-23T04:25:38.392Z,1021.52
2019-03-23T04:26:39.470Z,1021.59
2019-03-23T04:27:38.324Z,1021.63
2019-03-23T04:28:38.448Z,1021.61
2019-03-23T04:29:38.284Z,1021.68
2019-03-23T04:30:38.456Z,1021.68
2019-03-23T04:31:38.266Z,1021.59
2019-03-23T04:32:38.352Z,1021.67
2019-03-23T04:33:38.266Z,1021.68
2019-03-23T04:34:38.257Z,1021.68
2019-03-23T04:35:38.271Z,1021.69
2019-03-23T04:36:38.270Z,1021.63
2019-03-23T04:37:38.218Z,1021.68
2019-03-23T04:38:38.292Z,1021.60
2019-03-23T04:39:38.178Z,1021.65
2019-03-23T04:40:38.341Z,1021.61
2019-03-23T04:41:38.155Z,1021.67
2019-03-23T04:42:38.211Z,1021.62
2019-03-23T04:43:38.140Z,1021.59
2019-03-23T04:44:38.247Z,1021.69
2019-03-23T04:45:38.148Z,1021.68
2019-03-23T04:46:38.132Z,1021.64
2019-03-23T04:47:38.089Z,1021.69
2019-03-23T04:48:38.154Z,1021.62
2019-03-23T04:49:38.073Z,1021.67
2019-03-23T04:50:38.198Z,1021.69
2019-03-23T04:51:38.046Z,1021.68
2019-03-23T04:52:38.096Z,1021.66
2019-03-23T04:53:38.046Z,1021.68
2019-03-23T04:54:38.994Z,1021.73
2019-03-23T04:55:38.026Z,1021.78
2019-03-23T04:56:38.099Z,1021.68
2019-03-23T04:57:38.003Z,1021.76
2019-03-23T04:58:38.027Z,1021.70
2019-03-23T04:59:37.967Z,1021.69
2019-03-23T05:00:38.063Z,1021.62
2019-03-23T05:01:37.934Z,1021.62
2019-03-23T05:02:38.051Z,1021.60
2019-03-23T05:03:37.917Z,1021.67
2019-03-23T05:04:37.949Z,1021.62
2019-03-23T05:05:37.984Z,1021.61
2019-03-23T05:06:37.961Z,1021.63
2019-03-23T05:07:37.874Z,1021.65
2019-03-23T05:08:37.982Z,1021.75
2019-03-23T05:09:37.858Z,1021.69
2019-03-23T05:10:37.922Z,1021.74
2019-03-23T05:11:37.864Z,1021.74
2019-03-23T05:12:37.904Z,1021.72
2019-03-23T05:13:37.823Z,1021.69
2019-03-23T05:14:37.922Z,1021.75
2019-03-23T05:15:37.791Z,1021.72
2019-03-23T05:16:37.872Z,1021.79
2019-03-23T05:17:37.772Z,1021.77
2019-03-23T05:18:37.863Z,1021.85
2019-03-23T05:19:37.752Z,1021.90
2019-03-23T05:20:37.754Z,1021.93
2019-03-23T05:21:37.754Z,1021.89
2019-03-23T05:22:37.772Z,1021.91
2019-03-23T05:23:37.716Z,1021.87
2019-03-23T05:24:37.805Z,1022.02
2019-03-23T05:25:37.682Z,1021.96
2019-03-23T05:26:37.846Z,1021.92
2019-03-23T05:27:37.656Z,1021.92
2019-03-23T05:28:37.736Z,1021.99
2019-03-23T05:29:37.636Z,1021.99
2019-03-23T05:30:37.720Z,1022.05
2019-03-23T05:31:37.624Z,1022.11
2019-03-23T05:32:37.682Z,1022.02
2019-03-23T05:33:37.588Z,1022.06
2019-03-23T05:34:37.650Z,1022.04
2019-03-23T05:35:37.570Z,1022.01
2019-03-23T05:36:37.709Z,1022.10
2019-03-23T05:37:37.566Z,1022.16
2019-03-23T05:38:44.259Z,1022.20
2019-03-23T05:39:38.525Z,1022.21
2019-03-23T05:40:37.586Z,1022.28
2019-03-23T05:41:37.505Z,1022.24
2019-03-23T05:42:37.703Z,1022.34
2019-03-23T05:43:37.483Z,1022.25
2019-03-23T05:44:37.552Z,1022.35
2019-03-23T05:45:37.456Z,1022.30
2019-03-23T05:46:37.524Z,1022.35
2019-03-23T05:47:37.471Z,1022.35
2019-03-23T05:48:37.541Z,1022.44
2019-03-23T05:49:37.419Z,1022.37
2019-03-23T05:50:37.458Z,1022.41
2019-03-23T05:51:37.406Z,1022.44
2019-03-23T05:52:37.508Z,1022.47
2019-03-23T05:53:37.399Z,1022.48
2019-03-23T05:54:37.481Z,1022.52
2019-03-23T05:55:37.366Z,1022.51
2019-03-23T05:56:37.390Z,1022.59
2019-03-23T05:57:37.380Z,1022.54
2019-03-23T05:58:37.437Z,1022.57
2019-03-23T05:59:37.320Z,1022.56
2019-03-23T06:00:37.311Z,1022.58
2019-03-23T06:01:37.276Z,1022.55
2019-03-23T06:02:37.381Z,1022.58
2019-03-23T06:03:37.314Z,1022.51
2019-03-23T06:04:37.345Z,1022.58
2019-03-23T06:05:37.263Z,1022.56
2019-03-23T06:06:37.256Z,1022.64
2019-03-23T06:07:37.224Z,1022.60
2019-03-23T06:08:37.312Z,1022.61
2019-03-23T06:09:37.204Z,1022.67
2019-03-23T06:10:37.331Z,1022.64
2019-03-23T06:11:37.178Z,1022.62
2019-03-23T06:12:37.201Z,1022.63
2019-03-23T06:13:37.187Z,1022.68
2019-03-23T06:14:37.218Z,1022.70
2019-03-23T06:15:37.153Z,1022.75
2019-03-23T06:16:37.224Z,1022.75
2019-03-23T06:17:37.140Z,1022.82
2019-03-23T06:18:37.169Z,1022.86
2019-03-23T06:19:37.088Z,1022.85
2019-03-23T06:20:37.159Z,1022.87
2019-03-23T06:21:37.068Z,1022.82
2019-03-23T06:22:37.185Z,1022.81
2019-03-23T06:23:37.086Z,1022.77
2019-03-23T06:24:37.120Z,1022.84
2019-03-23T06:25:37.017Z,1022.78
2019-03-23T06:26:37.097Z,1022.73
2019-03-23T06:27:37.035Z,1022.72
2019-03-23T06:28:37.106Z,1022.73
2019-03-23T06:29:36.975Z,1022.74
2019-03-23T06:30:37.067Z,1022.73
2019-03-23T06:31:36.958Z,1022.83
2019-03-23T06:32:37.054Z,1022.81
2019-03-23T06:33:36.932Z,1022.87
2019-03-23T06:34:37.092Z,1022.78
2019-03-23T06:35:36.935Z,1022.87
2019-03-23T06:36:36.978Z,1022.80
2019-03-23T06:37:36.903Z,1022.82
2019-03-23T06:38:36.977Z,1022.86
2019-03-23T06:39:36.919Z,1022.84
2019-03-23T06:40:36.987Z,1022.80
2019-03-23T06:41:36.876Z,1022.83
2019-03-23T06:42:36.897Z,1022.82
2019-03-23T06:43:36.845Z,1022.83
2019-03-23T06:44:36.962Z,1022.80
2019-03-23T06:45:36.849Z,1022.83
2019-03-23T06:46:36.831Z,1022.83
2019-03-23T06:47:36.784Z,1022.81
2019-03-23T06:48:36.834Z,1022.81
2019-03-23T06:49:36.796Z,1022.78
2019-03-23T06:50:36.883Z,1022.79
2019-03-23T06:51:36.745Z,1022.78
2019-03-23T06:52:36.772Z,1022.82
2019-03-23T06:53:36.725Z,1022.83
2019-03-23T06:54:37.117Z,1022.79
2019-03-23T06:55:36.733Z,1022.89
2019-03-23T06:56:36.793Z,1022.85
2019-03-23T06:57:36.685Z,1022.82
2019-03-23T06:58:38.599Z,1022.87
2019-03-23T06:59:36.689Z,1022.85
2019-03-23T07:00:36.740Z,1022.88
2019-03-23T07:01:36.626Z,1022.81
2019-03-23T07:02:36.741Z,1022.82
2019-03-23T07:03:36.623Z,1022.82
2019-03-23T07:04:36.685Z,1022.84
2019-03-23T07:05:36.626Z,1022.89
2019-03-23T07:07:37.691Z,1022.87
2019-03-23T07:08:36.745Z,1022.93
2019-03-23T07:09:36.560Z,1022.91
2019-03-23T07:10:36.592Z,1022.90
2019-03-23T07:11:36.553Z,1022.90
2019-03-23T07:12:36.588Z,1022.88
2019-03-23T07:13:36.508Z,1022.90
2019-03-23T07:14:36.618Z,1022.93
2019-03-23T07:15:36.503Z,1022.93
2019-03-23T07:16:36.547Z,1022.90
2019-03-23T07:17:36.472Z,1022.96
2019-03-23T07:18:36.529Z,1023.02
2019-03-23T07:19:36.439Z,1022.95
2019-03-23T07:20:36.587Z,1022.93
2019-03-23T07:21:36.439Z,1022.98
2019-03-23T07:22:36.466Z,1022.94
2019-03-23T07:23:36.418Z,1022.97
2019-03-23T07:24:36.495Z,1022.96
2019-03-23T07:25:36.370Z,1022.87
2019-03-23T07:26:36.420Z,1022.94
2019-03-23T07:27:36.348Z,1022.97
2019-03-23T07:28:36.456Z,1022.99
2019-03-23T07:29:36.334Z,1023.00
2019-03-23T07:30:36.416Z,1022.98
2019-03-23T07:31:36.342Z,1022.99
2019-03-23T07:32:36.436Z,1023.03
2019-03-23T07:33:36.282Z,1023.07
2019-03-23T07:34:36.334Z,1023.06
2019-03-23T07:35:36.263Z,1023.09
2019-03-23T07:36:36.393Z,1023.00
2019-03-23T07:37:36.268Z,1023.01
2019-03-23T07:38:36.271Z,1022.98
2019-03-23T07:39:36.232Z,1022.94
2019-03-23T07:40:36.274Z,1022.96
2019-03-23T07:41:36.234Z,1023.01
2019-03-23T07:42:36.301Z,1023.01
2019-03-23T07:43:36.192Z,1023.01
2019-03-23T07:44:36.214Z,1023.01
2019-03-23T07:45:36.152Z,1022.96
2019-03-23T07:46:36.247Z,1022.95
2019-03-23T07:47:36.138Z,1022.94
2019-03-23T07:48:36.230Z,1022.99
2019-03-23T07:49:36.188Z,1023.01
2019-03-23T07:50:36.147Z,1023.01
2019-03-23T07:51:36.145Z,1023.03
2019-03-23T07:52:36.201Z,1023.07
2019-03-23T07:53:36.102Z,1022.96
2019-03-23T07:54:36.170Z,1022.93
2019-03-23T07:55:36.043Z,1022.93
2019-03-23T07:56:36.080Z,1022.97
2019-03-23T07:57:36.043Z,1022.93
2019-03-23T07:58:36.084Z,1023.00
2019-03-23T07:59:36.016Z,1023.01
2019-03-23T08:00:36.108Z,1023.02
2019-03-23T08:01:35.976Z,1023.00
2019-03-23T08:02:36.053Z,1023.00
2019-03-23T08:03:35.984Z,1023.03
2019-03-23T08:04:36.037Z,1023.00
2019-03-23T08:05:35.937Z,1023.01
2019-03-23T08:06:35.939Z,1022.94
2019-03-23T08:07:35.933Z,1022.99
2019-03-23T08:08:35.962Z,1023.02
2019-03-23T08:09:37.858Z,1023.00
2019-03-23T08:10:35.971Z,1023.08
2019-03-23T08:11:35.890Z,1023.02
2019-03-23T08:12:35.926Z,1023.04
2019-03-23T08:13:35.854Z,1022.99
2019-03-23T08:14:36.235Z,1023.03
2019-03-23T08:15:35.818Z,1023.02
2019-03-23T08:16:35.931Z,1023.05
2019-03-23T08:17:35.811Z,1023.03
2019-03-23T08:18:35.872Z,1023.02
2019-03-23T08:19:35.786Z,1023.05
2019-03-23T08:20:35.847Z,1023.02
2019-03-23T08:21:35.785Z,1023.01
2019-03-23T08:22:35.849Z,1022.99
2019-03-23T08:23:35.766Z,1023.00
2019-03-23T08:24:35.760Z,1023.02
2019-03-23T08:25:35.703Z,1023.03
2019-03-23T08:26:35.797Z,1023.09
2019-03-23T08:27:35.683Z,1023.04
2019-03-23T08:28:35.831Z,1023.09
2019-03-23T08:29:35.660Z,1023.04
2019-03-23T08:30:35.743Z,1023.03
2019-03-23T08:31:35.646Z,1023.07
2019-03-23T08:32:35.717Z,1023.06
2019-03-23T08:33:35.648Z,1023.05
2019-03-23T08:34:35.728Z,1023.07
2019-03-23T08:35:35.599Z,1023.10
2019-03-23T08:36:35.645Z,1023.02
2019-03-23T08:37:35.584Z,1023.05
2019-03-23T08:38:35.682Z,1023.04
2019-03-23T08:39:35.578Z,1023.07
2019-03-23T08:40:35.930Z,1023.10
2019-03-23T08:41:35.539Z,1023.12
2019-03-23T08:42:35.592Z,1023.13
2019-03-23T08:43:35.546Z,1023.17
2019-03-23T08:44:35.610Z,1023.15
2019-03-23T08:45:35.482Z,1023.10
2019-03-23T08:46:35.547Z,1023.15
2019-03-23T08:47:35.470Z,1023.14
2019-03-23T08:48:35.551Z,1023.19
2019-03-23T08:49:35.490Z,1023.15
2019-03-23T08:51:36.566Z,1023.19
2019-03-23T08:52:35.445Z,1023.16
2019-03-23T08:53:35.404Z,1023.14
2019-03-23T08:54:35.494Z,1023.13
2019-03-23T08:55:35.386Z,1023.11
2019-03-23T08:56:37.410Z,1023.11
2019-03-23T08:57:35.366Z,1023.07
2019-03-23T08:59:36.517Z,1023.12
2019-03-23T09:00:35.397Z,1023.07
2019-03-23T09:01:35.307Z,1023.12
2019-03-23T09:02:35.409Z,1023.08
2019-03-23T09:03:35.296Z,1023.10
2019-03-23T09:04:35.358Z,1023.07
2019-03-23T09:05:35.255Z,1023.16
2019-03-23T09:06:35.341Z,1023.12
2019-03-23T09:07:35.239Z,1023.18
2019-03-23T09:08:35.362Z,1023.19
2019-03-23T09:10:36.207Z,1023.20
2019-03-23T09:11:35.267Z,1023.21
2019-03-23T09:12:35.186Z,1023.18
2019-03-23T09:13:40.640Z,1023.25
2019-03-23T09:14:36.201Z,1023.26
2019-03-23T09:15:35.229Z,1023.24
2019-03-23T09:16:35.193Z,1023.30
2019-03-23T09:17:35.211Z,1023.31
2019-03-23T09:18:35.116Z,1023.22
2019-03-23T09:19:35.229Z,1023.28
2019-03-23T09:20:35.132Z,1023.27
2019-03-23T09:21:35.128Z,1023.26
2019-03-23T09:22:35.081Z,1023.31
2019-03-23T09:23:35.147Z,1023.30
2019-03-23T09:24:35.054Z,1023.34
2019-03-23T09:25:35.193Z,1023.35
2019-03-23T09:26:35.052Z,1023.38
2019-03-23T09:27:35.074Z,1023.40
2019-03-23T09:28:35.036Z,1023.31
2019-03-23T09:29:35.097Z,1023.32
2019-03-23T09:30:35.025Z,1023.33
2019-03-23T09:31:35.066Z,1023.31
2019-03-23T09:32:34.968Z,1023.36
2019-03-23T09:33:35.014Z,1023.39
2019-03-23T09:34:34.947Z,1023.32
2019-03-23T09:35:35.064Z,1023.34
2019-03-23T09:36:34.985Z,1023.39
2019-03-23T09:37:38.215Z,1023.33
2019-03-23T09:38:34.929Z,1023.32
2019-03-23T09:39:34.962Z,1023.39
2019-03-23T09:40:34.880Z,1023.41
2019-03-23T09:41:35.000Z,1023.40
2019-03-23T09:42:34.882Z,1023.47
2019-03-23T09:43:34.902Z,1023.39
2019-03-23T09:44:34.836Z,1023.46
2019-03-23T09:45:34.895Z,1023.43
2019-03-23T09:46:34.842Z,1023.47
2019-03-23T09:48:35.909Z,1023.54
2019-03-23T09:49:34.827Z,1023.58
2019-03-23T09:50:34.765Z,1023.57
2019-03-23T09:51:34.857Z,1023.63
2019-03-23T09:52:34.759Z,1023.56
2019-03-23T09:53:34.846Z,1023.63
2019-03-23T09:54:34.723Z,1023.69
2019-03-23T09:55:34.754Z,1023.59
2019-03-23T09:56:34.736Z,1023.59
2019-03-23T09:57:34.780Z,1023.59
2019-03-23T09:58:34.729Z,1023.64
2019-03-23T09:59:34.784Z,1023.68
2019-03-23T10:00:34.659Z,1023.68
2019-03-23T10:01:34.703Z,1023.69
2019-03-23T10:02:34.720Z,1023.62
2019-03-23T10:03:34.708Z,1023.60
2019-03-23T10:04:34.609Z,1023.62
2019-03-23T10:05:34.724Z,1023.61
2019-03-23T10:06:34.589Z,1023.65
2019-03-23T10:07:34.661Z,1023.61
2019-03-23T10:08:34.574Z,1023.68
2019-03-23T10:09:34.651Z,1023.66
2019-03-23T10:10:34.547Z,1023.65
2019-03-23T10:11:34.568Z,1023.66
2019-03-23T10:12:34.573Z,1023.66
2019-03-23T10:13:34.578Z,1023.73
2019-03-23T10:14:34.506Z,1023.68
2019-03-23T10:15:34.587Z,1023.66
2019-03-23T10:16:34.475Z,1023.55
2019-03-23T10:17:34.531Z,1023.63
2019-03-23T10:18:34.473Z,1023.60
2019-03-23T10:19:34.517Z,1023.58
2019-03-23T10:20:34.439Z,1023.60
2019-03-23T10:21:34.524Z,1023.58
2019-03-23T10:22:34.416Z,1023.60
2019-03-23T10:23:34.481Z,1023.56
2019-03-23T10:24:34.541Z,1023.54
2019-03-23T10:25:34.549Z,1023.50
2019-03-23T10:26:34.474Z,1023.56
2019-03-23T10:27:34.461Z,1023.54
2019-03-23T10:28:34.365Z,1023.58
2019-03-23T10:29:34.401Z,1023.56
2019-03-23T10:30:34.329Z,1023.59
2019-03-23T10:31:34.392Z,1023.52
2019-03-23T10:32:34.307Z,1023.56
2019-03-23T10:33:34.466Z,1023.54
2019-03-23T10:34:34.275Z,1023.54
2019-03-23T10:35:34.426Z,1023.47
2019-03-23T10:36:34.272Z,1023.49
2019-03-23T10:37:34.328Z,1023.55
2019-03-23T10:38:34.275Z,1023.51
2019-03-23T10:39:47.201Z,1023.60
2019-03-23T10:40:35.217Z,1023.55
2019-03-23T10:41:34.263Z,1023.56
2019-03-23T10:42:34.245Z,1023.60
2019-03-23T10:43:34.300Z,1023.54
2019-03-23T10:44:34.160Z,1023.53
2019-03-23T10:45:43.806Z,1023.47
2019-03-23T10:46:35.135Z,1023.58
2019-03-23T10:47:34.319Z,1023.62
2019-03-23T10:48:34.168Z,1023.56
2019-03-23T10:49:34.215Z,1023.61
2019-03-23T10:50:34.097Z,1023.58
2019-03-23T10:51:34.118Z,1023.52
2019-03-23T10:52:34.103Z,1023.55
2019-03-23T10:53:34.518Z,1023.52
2019-03-23T10:54:34.336Z,1023.51
2019-03-23T10:55:34.459Z,1023.52
2019-03-23T10:56:34.037Z,1023.54
2019-03-23T10:57:34.066Z,1023.53
2019-03-23T10:58:34.008Z,1023.46
2019-03-23T10:59:34.122Z,1023.47
2019-03-23T11:00:34.005Z,1023.55
2019-03-23T11:01:34.100Z,1023.51
2019-03-23T11:02:34.058Z,1023.57
2019-03-23T11:03:34.112Z,1023.55
2019-03-23T11:04:34.016Z,1023.57
2019-03-23T11:05:34.422Z,1023.52
2019-03-23T11:06:34.134Z,1023.55
2019-03-23T11:07:34.033Z,1023.55
2019-03-23T11:08:33.949Z,1023.46
2019-03-23T11:09:34.003Z,1023.52
2019-03-23T11:10:41.587Z,1023.55
2019-03-23T11:11:34.863Z,1023.54
2019-03-23T11:12:33.977Z,1023.55
2019-03-23T11:13:33.853Z,1023.52
2019-03-23T11:14:33.913Z,1023.50
2019-03-23T11:15:33.841Z,1023.56
2019-03-23T11:16:33.889Z,1023.53
2019-03-23T11:17:33.893Z,1023.59
2019-03-23T11:18:33.899Z,1023.57
2019-03-23T11:19:33.814Z,1023.55
2019-03-23T11:20:33.815Z,1023.58
2019-03-23T11:21:33.753Z,1023.50
2019-03-23T11:22:33.913Z,1023.52
2019-03-23T11:23:33.802Z,1023.51
2019-03-23T11:24:33.869Z,1023.51
2019-03-23T11:25:33.709Z,1023.55
2019-03-23T11:26:33.752Z,1023.57
2019-03-23T11:27:33.688Z,1023.59
2019-03-23T11:28:33.766Z,1023.68
2019-03-23T11:29:33.805Z,1023.66
2019-03-23T11:31:34.775Z,1023.64
2019-03-23T11:32:33.725Z,1023.65
2019-03-23T11:33:33.630Z,1023.64
2019-03-23T11:34:33.755Z,1023.67
2019-03-23T11:35:33.721Z,1023.78
2019-03-23T11:37:34.823Z,1023.75
2019-03-23T11:38:33.632Z,1023.77
2019-03-23T11:39:33.575Z,1023.73
2019-03-23T11:40:33.676Z,1023.73
2019-03-23T11:41:33.587Z,1023.72
2019-03-23T11:42:33.675Z,1023.70
2019-03-23T11:43:33.546Z,1023.72
2019-03-23T11:44:33.569Z,1023.72
2019-03-23T11:45:33.544Z,1023.72
2019-03-23T11:46:33.588Z,1023.81
2019-03-23T11:47:33.488Z,1023.77
2019-03-23T11:48:33.658Z,1023.76
2019-03-23T11:49:33.476Z,1023.76
2019-03-23T11:50:33.581Z,1023.76
2019-03-23T11:51:33.439Z,1023.69
2019-03-23T11:52:33.553Z,1023.76
2019-03-23T11:53:33.426Z,1023.68
2019-03-23T11:54:33.476Z,1023.67
2019-03-23T11:55:33.431Z,1023.71
2019-03-23T11:56:33.511Z,1023.77
2019-03-23T11:57:33.394Z,1023.72
2019-03-23T11:58:33.478Z,1023.77
2019-03-23T11:59:33.347Z,1023.74
2019-03-23T12:00:33.407Z,1023.69
2019-03-23T12:01:33.318Z,1023.72
2019-03-23T12:02:33.401Z,1023.72
2019-03-23T12:03:33.296Z,1023.79
2019-03-23T12:04:33.403Z,1023.73
2019-03-23T12:05:33.275Z,1023.76
2019-03-23T12:06:33.364Z,1023.78
2019-03-23T12:07:33.257Z,1023.76
2019-03-23T12:08:33.340Z,1023.77
2019-03-23T12:09:33.235Z,1023.74
2019-03-23T12:10:33.244Z,1023.74
2019-03-23T12:11:33.261Z,1023.73
2019-03-23T12:12:33.262Z,1023.70
2019-03-23T12:13:33.187Z,1023.69
2019-03-23T12:14:33.263Z,1023.69
2019-03-23T12:15:33.165Z,1023.66
2019-03-23T12:16:33.432Z,1023.70
2019-03-23T12:17:33.152Z,1023.65
2019-03-23T12:18:33.249Z,1023.59
2019-03-23T12:19:33.147Z,1023.64
2019-03-23T12:20:33.214Z,1023.60
2019-03-23T12:21:33.191Z,1023.60
2019-03-23T12:22:33.146Z,1023.65
2019-03-23T12:23:33.069Z,1023.57
2019-03-23T12:24:33.139Z,1023.58
2019-03-23T12:25:33.061Z,1023.58
2019-03-23T12:26:35.143Z,1023.59
2019-03-23T12:27:33.045Z,1023.56